パリ/シャルル・ド・ゴール の空港の天気 - METARとTAF

シャルル・ド・ゴール国際空港(パリ) ( LFPG / CDG ) - フランス Paris
飛行場実況気象(Metar)
観測時間11/12 03:30 CET (11/12 02:30 UTC)
風向・風速南南西 3m/s
視程10km以上
天気現象
全天の4割程度の雲 雲底高度 460m
全天の8割程度の雲 雲底高度 2010m
全天の8割程度の雲 雲底高度 3660m
気温5℃
湿度87%
気圧1005hPa
METARLFPG 120230Z 20006KT 9999 SCT015 BKN066 BKN120 05/03 Q1005 NOSIG
過去の天気等 Google飛行場航空写真 Wunderground天気予報

過去48時間のMETAR

飛行場予報(TAF)
発表時間: 11/12 01:46 CET (11/12 00:46 UTC)
予報対象時間: 12日1時 CET ~ 13日7時 CET
風向・風速南西 5m/s
視程10km以上
全天の8割程度の雲 雲底高度 610m
12日1時 CET ~ 12日10時 CET に一時的に
全天の8割程度の雲 雲底高度 240m
12日1時 CET ~ 12日10時 CET に 確率 30% で一時的に
天気現象しゅう雨あられ
全天の4割程度の積乱雲 雲底高度 610m
12日10時 CET ~ 12日17時 CET に一時的に
風向・風速南西 8m/s 瞬間風速 13m/s
視程3000m
天気現象しゅう雨あられ
全天の8割程度の積乱雲 雲底高度 610m
12日22時 CET ~ 13日1時 CET に 確率 30% で一時的に
天気現象しゅう雨あられ
全天の4割程度の積乱雲 雲底高度 910m
13日1時 CET から 確率 40% で
視程4000m
天気現象もや
TAF AMD LFPG 120046Z 1200/1306 22010KT 9999 BKN020 TX08/1214Z TN03/1203Z
TEMPO 1200/1209 BKN008
PROB30 TEMPO 1200/1209 SHRAGS SCT020CB
TEMPO 1209/1216 22015G25KT 3000 SHRAGS BKN020CB
PROB30 TEMPO 1221/1224 SHRAGS SCT030CB
PROB40 1300/1306 4000 BR